sensor_id;sensor_type;location;lat;lon;timestamp;P1;durP1;ratioP1;P2;durP2;ratioP2
21777;SDS011;11050;52.222;20.916;2023-09-19T00:00:33;16.30;;;14.10;;
21777;SDS011;11050;52.222;20.916;2023-09-19T00:03:00;17.92;;;13.52;;
21777;SDS011;11050;52.222;20.916;2023-09-19T00:05:26;20.77;;;14.18;;
21777;SDS011;11050;52.222;20.916;2023-09-19T00:07:54;16.15;;;13.10;;
21777;SDS011;11050;52.222;20.916;2023-09-19T00:10:26;18.35;;;13.55;;
21777;SDS011;11050;52.222;20.916;2023-09-19T00:12:56;17.95;;;14.05;;
21777;SDS011;11050;52.222;20.916;2023-09-19T00:15:30;17.42;;;13.60;;
21777;SDS011;11050;52.222;20.916;2023-09-19T00:18:02;16.55;;;13.48;;
21777;SDS011;11050;52.222;20.916;2023-09-19T00:20:31;19.38;;;13.48;;
21777;SDS011;11050;52.222;20.916;2023-09-19T00:22:58;20.40;;;13.68;;
21777;SDS011;11050;52.222;20.916;2023-09-19T00:25:24;15.43;;;13.73;;
21777;SDS011;11050;52.222;20.916;2023-09-19T00:27:51;17.17;;;13.07;;
21777;SDS011;11050;52.222;20.916;2023-09-19T00:30:17;19.80;;;14.98;;
21777;SDS011;11050;52.222;20.916;2023-09-19T00:32:46;22.50;;;14.27;;
21777;SDS011;11050;52.222;20.916;2023-09-19T00:35:14;17.60;;;14.13;;
21777;SDS011;11050;52.222;20.916;2023-09-19T00:37:40;17.65;;;13.57;;
21777;SDS011;11050;52.222;20.916;2023-09-19T00:40:07;18.83;;;14.13;;
21777;SDS011;11050;52.222;20.916;2023-09-19T00:42:40;20.05;;;14.48;;
21777;SDS011;11050;52.222;20.916;2023-09-19T00:45:09;19.70;;;13.63;;
21777;SDS011;11050;52.222;20.916;2023-09-19T00:47:39;20.08;;;14.25;;
21777;SDS011;11050;52.222;20.916;2023-09-19T00:50:09;19.30;;;14.55;;
21777;SDS011;11050;52.222;20.916;2023-09-19T00:52:36;21.05;;;14.77;;
21777;SDS011;11050;52.222;20.916;2023-09-19T00:55:06;18.70;;;14.40;;
21777;SDS011;11050;52.222;20.916;2023-09-19T00:57:35;18.02;;;14.55;;
21777;SDS011;11050;52.222;20.916;2023-09-19T01:00:03;20.45;;;14.50;;
21777;SDS011;11050;52.222;20.916;2023-09-19T01:02:33;19.30;;;14.70;;
21777;SDS011;11050;52.222;20.916;2023-09-19T01:05:00;22.77;;;14.45;;
21777;SDS011;11050;52.222;20.916;2023-09-19T01:07:26;16.35;;;13.70;;
21777;SDS011;11050;52.222;20.916;2023-09-19T01:09:56;21.00;;;15.02;;
21777;SDS011;11050;52.222;20.916;2023-09-19T01:15:46;19.40;;;14.52;;
21777;SDS011;11050;52.222;20.916;2023-09-19T01:21:22;18.15;;;14.95;;
21777;SDS011;11050;52.222;20.916;2023-09-19T01:29:39;17.30;;;14.43;;
21777;SDS011;11050;52.222;20.916;2023-09-19T01:32:11;18.70;;;14.40;;
21777;SDS011;11050;52.222;20.916;2023-09-19T01:34:45;18.13;;;15.00;;
21777;SDS011;11050;52.222;20.916;2023-09-19T01:37:12;19.25;;;14.13;;
21777;SDS011;11050;52.222;20.916;2023-09-19T01:39:39;23.73;;;15.43;;
21777;SDS011;11050;52.222;20.916;2023-09-19T01:42:14;17.58;;;14.32;;
21777;SDS011;11050;52.222;20.916;2023-09-19T01:47:31;20.63;;;15.13;;
21777;SDS011;11050;52.222;20.916;2023-09-19T01:50:07;18.23;;;14.13;;
21777;SDS011;11050;52.222;20.916;2023-09-19T01:53:06;20.85;;;14.63;;
21777;SDS011;11050;52.222;20.916;2023-09-19T01:55:47;18.75;;;14.35;;
21777;SDS011;11050;52.222;20.916;2023-09-19T02:01:11;22.38;;;15.35;;
21777;SDS011;11050;52.222;20.916;2023-09-19T02:03:43;20.33;;;15.55;;
21777;SDS011;11050;52.222;20.916;2023-09-19T02:06:15;18.58;;;13.90;;
21777;SDS011;11050;52.222;20.916;2023-09-19T02:08:43;18.83;;;14.77;;
21777;SDS011;11050;52.222;20.916;2023-09-19T02:11:12;21.52;;;15.40;;
21777;SDS011;11050;52.222;20.916;2023-09-19T02:13:38;16.67;;;13.93;;
21777;SDS011;11050;52.222;20.916;2023-09-19T02:16:05;18.90;;;14.73;;
21777;SDS011;11050;52.222;20.916;2023-09-19T02:18:32;23.05;;;14.88;;
21777;SDS011;11050;52.222;20.916;2023-09-19T02:21:00;19.17;;;14.43;;
21777;SDS011;11050;52.222;20.916;2023-09-19T02:23:29;19.02;;;14.20;;
21777;SDS011;11050;52.222;20.916;2023-09-19T02:25:55;20.88;;;15.90;;
21777;SDS011;11050;52.222;20.916;2023-09-19T02:28:31;19.27;;;15.35;;
21777;SDS011;11050;52.222;20.916;2023-09-19T02:30:57;23.52;;;15.25;;
21777;SDS011;11050;52.222;20.916;2023-09-19T02:33:24;18.17;;;14.18;;
21777;SDS011;11050;52.222;20.916;2023-09-19T02:35:50;19.85;;;14.93;;
21777;SDS011;11050;52.222;20.916;2023-09-19T02:38:22;17.95;;;14.35;;
21777;SDS011;11050;52.222;20.916;2023-09-19T02:40:50;20.13;;;14.75;;
21777;SDS011;11050;52.222;20.916;2023-09-19T02:43:16;20.10;;;15.27;;
21777;SDS011;11050;52.222;20.916;2023-09-19T02:45:42;20.05;;;14.95;;
21777;SDS011;11050;52.222;20.916;2023-09-19T02:48:08;19.27;;;14.90;;
21777;SDS011;11050;52.222;20.916;2023-09-19T02:50:33;20.33;;;15.10;;
21777;SDS011;11050;52.222;20.916;2023-09-19T02:52:59;20.52;;;15.68;;
21777;SDS011;11050;52.222;20.916;2023-09-19T02:55:25;20.40;;;15.20;;
21777;SDS011;11050;52.222;20.916;2023-09-19T02:57:51;19.33;;;15.38;;
21777;SDS011;11050;52.222;20.916;2023-09-19T03:00:22;19.60;;;15.65;;
21777;SDS011;11050;52.222;20.916;2023-09-19T03:02:49;23.15;;;14.82;;
21777;SDS011;11050;52.222;20.916;2023-09-19T03:05:20;24.15;;;16.23;;
21777;SDS011;11050;52.222;20.916;2023-09-19T03:07:47;19.58;;;15.55;;
21777;SDS011;11050;52.222;20.916;2023-09-19T03:10:16;18.92;;;15.13;;
21777;SDS011;11050;52.222;20.916;2023-09-19T03:12:43;19.75;;;15.63;;
21777;SDS011;11050;52.222;20.916;2023-09-19T03:15:09;22.20;;;16.30;;
21777;SDS011;11050;52.222;20.916;2023-09-19T03:17:35;19.75;;;15.50;;
21777;SDS011;11050;52.222;20.916;2023-09-19T03:20:01;23.75;;;15.88;;
21777;SDS011;11050;52.222;20.916;2023-09-19T03:22:29;20.73;;;15.40;;
21777;SDS011;11050;52.222;20.916;2023-09-19T03:24:55;19.60;;;15.50;;
21777;SDS011;11050;52.222;20.916;2023-09-19T03:27:20;22.52;;;16.45;;
21777;SDS011;11050;52.222;20.916;2023-09-19T03:29:46;21.52;;;15.45;;
21777;SDS011;11050;52.222;20.916;2023-09-19T03:32:12;23.00;;;16.33;;
21777;SDS011;11050;52.222;20.916;2023-09-19T03:34:38;19.60;;;15.48;;
21777;SDS011;11050;52.222;20.916;2023-09-19T03:37:08;20.58;;;15.55;;
21777;SDS011;11050;52.222;20.916;2023-09-19T03:39:35;21.50;;;15.95;;
21777;SDS011;11050;52.222;20.916;2023-09-19T03:42:01;22.83;;;15.60;;
21777;SDS011;11050;52.222;20.916;2023-09-19T03:44:32;20.75;;;14.77;;
21777;SDS011;11050;52.222;20.916;2023-09-19T03:46:58;19.80;;;15.27;;
21777;SDS011;11050;52.222;20.916;2023-09-19T03:49:23;18.45;;;14.82;;
21777;SDS011;11050;52.222;20.916;2023-09-19T03:51:49;21.10;;;15.55;;
21777;SDS011;11050;52.222;20.916;2023-09-19T03:54:15;22.42;;;15.85;;
21777;SDS011;11050;52.222;20.916;2023-09-19T03:56:42;24.70;;;16.67;;
21777;SDS011;11050;52.222;20.916;2023-09-19T03:59:08;18.50;;;15.20;;
21777;SDS011;11050;52.222;20.916;2023-09-19T04:01:34;22.60;;;16.05;;
21777;SDS011;11050;52.222;20.916;2023-09-19T04:04:00;23.75;;;15.32;;
21777;SDS011;11050;52.222;20.916;2023-09-19T04:06:33;22.55;;;14.48;;
21777;SDS011;11050;52.222;20.916;2023-09-19T04:09:03;22.95;;;15.68;;
21777;SDS011;11050;52.222;20.916;2023-09-19T04:11:29;18.60;;;14.82;;
21777;SDS011;11050;52.222;20.916;2023-09-19T04:13:56;19.20;;;15.27;;
21777;SDS011;11050;52.222;20.916;2023-09-19T04:16:22;19.55;;;14.90;;
21777;SDS011;11050;52.222;20.916;2023-09-19T04:18:48;22.65;;;14.57;;
21777;SDS011;11050;52.222;20.916;2023-09-19T04:21:13;20.92;;;15.10;;
21777;SDS011;11050;52.222;20.916;2023-09-19T04:23:39;24.20;;;16.80;;
21777;SDS011;11050;52.222;20.916;2023-09-19T04:26:04;22.88;;;15.68;;
21777;SDS011;11050;52.222;20.916;2023-09-19T04:28:31;19.45;;;16.00;;
21777;SDS011;11050;52.222;20.916;2023-09-19T04:30:59;21.67;;;15.55;;
21777;SDS011;11050;52.222;20.916;2023-09-19T04:33:27;22.80;;;15.40;;
21777;SDS011;11050;52.222;20.916;2023-09-19T04:35:53;19.30;;;15.07;;
21777;SDS011;11050;52.222;20.916;2023-09-19T04:38:19;19.45;;;15.05;;
21777;SDS011;11050;52.222;20.916;2023-09-19T04:40:45;22.60;;;15.25;;
21777;SDS011;11050;52.222;20.916;2023-09-19T04:43:11;20.13;;;16.25;;
21777;SDS011;11050;52.222;20.916;2023-09-19T04:45:38;20.92;;;16.00;;
21777;SDS011;11050;52.222;20.916;2023-09-19T04:48:07;22.30;;;15.55;;
21777;SDS011;11050;52.222;20.916;2023-09-19T04:50:33;21.60;;;14.82;;
21777;SDS011;11050;52.222;20.916;2023-09-19T04:52:59;20.50;;;15.30;;
21777;SDS011;11050;52.222;20.916;2023-09-19T04:55:26;19.73;;;15.10;;
21777;SDS011;11050;52.222;20.916;2023-09-19T04:57:52;24.63;;;15.05;;
21777;SDS011;11050;52.222;20.916;2023-09-19T05:00:22;19.08;;;14.73;;
21777;SDS011;11050;52.222;20.916;2023-09-19T05:02:54;23.30;;;15.60;;
21777;SDS011;11050;52.222;20.916;2023-09-19T05:05:21;20.08;;;15.70;;
21777;SDS011;11050;52.222;20.916;2023-09-19T05:07:48;20.48;;;15.13;;
21777;SDS011;11050;52.222;20.916;2023-09-19T05:10:16;21.42;;;14.65;;
21777;SDS011;11050;52.222;20.916;2023-09-19T05:12:44;21.23;;;14.90;;
21777;SDS011;11050;52.222;20.916;2023-09-19T05:15:12;19.02;;;14.40;;
21777;SDS011;11050;52.222;20.916;2023-09-19T05:17:39;19.30;;;14.88;;
21777;SDS011;11050;52.222;20.916;2023-09-19T05:20:05;20.75;;;14.25;;
21777;SDS011;11050;52.222;20.916;2023-09-19T05:22:49;21.13;;;13.93;;
21777;SDS011;11050;52.222;20.916;2023-09-19T05:25:33;21.13;;;14.23;;
21777;SDS011;11050;52.222;20.916;2023-09-19T05:28:08;18.38;;;13.60;;
21777;SDS011;11050;52.222;20.916;2023-09-19T05:30:37;24.00;;;15.25;;
21777;SDS011;11050;52.222;20.916;2023-09-19T05:33:06;18.25;;;14.73;;
21777;SDS011;11050;52.222;20.916;2023-09-19T05:35:32;19.55;;;14.82;;
21777;SDS011;11050;52.222;20.916;2023-09-19T05:37:58;19.50;;;14.70;;
21777;SDS011;11050;52.222;20.916;2023-09-19T05:40:24;21.58;;;14.15;;
21777;SDS011;11050;52.222;20.916;2023-09-19T05:42:51;21.60;;;14.05;;
21777;SDS011;11050;52.222;20.916;2023-09-19T05:45:17;21.30;;;13.32;;
21777;SDS011;11050;52.222;20.916;2023-09-19T05:47:49;23.10;;;15.07;;
21777;SDS011;11050;52.222;20.916;2023-09-19T05:50:21;16.98;;;14.13;;
21777;SDS011;11050;52.222;20.916;2023-09-19T05:52:53;21.25;;;13.65;;
21777;SDS011;11050;52.222;20.916;2023-09-19T05:55:20;22.38;;;14.48;;
21777;SDS011;11050;52.222;20.916;2023-09-19T05:57:49;20.27;;;14.73;;
21777;SDS011;11050;52.222;20.916;2023-09-19T06:00:19;23.73;;;14.32;;
21777;SDS011;11050;52.222;20.916;2023-09-19T06:02:51;20.60;;;13.25;;
21777;SDS011;11050;52.222;20.916;2023-09-19T06:05:17;19.17;;;13.52;;
21777;SDS011;11050;52.222;20.916;2023-09-19T06:07:43;19.80;;;14.43;;
21777;SDS011;11050;52.222;20.916;2023-09-19T06:10:09;22.60;;;14.00;;
21777;SDS011;11050;52.222;20.916;2023-09-19T06:12:41;18.25;;;13.50;;
21777;SDS011;11050;52.222;20.916;2023-09-19T06:15:11;19.17;;;13.75;;
21777;SDS011;11050;52.222;20.916;2023-09-19T06:17:46;16.98;;;13.75;;
21777;SDS011;11050;52.222;20.916;2023-09-19T06:20:20;22.15;;;13.70;;
21777;SDS011;11050;52.222;20.916;2023-09-19T06:22:47;19.08;;;13.73;;
21777;SDS011;11050;52.222;20.916;2023-09-19T06:25:14;21.00;;;14.63;;
21777;SDS011;11050;52.222;20.916;2023-09-19T06:27:48;17.27;;;13.60;;
21777;SDS011;11050;52.222;20.916;2023-09-19T06:30:17;20.42;;;13.57;;
21777;SDS011;11050;52.222;20.916;2023-09-19T06:32:43;21.45;;;13.93;;
21777;SDS011;11050;52.222;20.916;2023-09-19T06:35:12;16.70;;;13.43;;
21777;SDS011;11050;52.222;20.916;2023-09-19T06:37:40;24.10;;;13.77;;
21777;SDS011;11050;52.222;20.916;2023-09-19T06:40:08;18.73;;;13.18;;
21777;SDS011;11050;52.222;20.916;2023-09-19T06:43:12;17.35;;;14.32;;
21777;SDS011;11050;52.222;20.916;2023-09-19T06:45:31;17.90;;;13.30;;
21777;SDS011;11050;52.222;20.916;2023-09-19T06:47:57;16.75;;;13.45;;
21777;SDS011;11050;52.222;20.916;2023-09-19T06:50:25;18.00;;;13.77;;
21777;SDS011;11050;52.222;20.916;2023-09-19T06:52:53;20.77;;;13.88;;
21777;SDS011;11050;52.222;20.916;2023-09-19T06:55:22;16.42;;;13.00;;
21777;SDS011;11050;52.222;20.916;2023-09-19T06:57:52;15.30;;;13.27;;
21777;SDS011;11050;52.222;20.916;2023-09-19T07:00:19;17.45;;;13.20;;
21777;SDS011;11050;52.222;20.916;2023-09-19T07:05:26;17.85;;;13.20;;
21777;SDS011;11050;52.222;20.916;2023-09-19T07:07:56;16.85;;;13.10;;
21777;SDS011;11050;52.222;20.916;2023-09-19T07:10:24;19.27;;;13.10;;
21777;SDS011;11050;52.222;20.916;2023-09-19T07:13:02;17.48;;;13.75;;
21777;SDS011;11050;52.222;20.916;2023-09-19T07:15:38;26.23;;;13.52;;
21777;SDS011;11050;52.222;20.916;2023-09-19T07:18:06;19.48;;;13.85;;
21777;SDS011;11050;52.222;20.916;2023-09-19T07:20:36;18.40;;;13.73;;
21777;SDS011;11050;52.222;20.916;2023-09-19T07:23:03;19.73;;;14.63;;
21777;SDS011;11050;52.222;20.916;2023-09-19T07:25:29;16.67;;;13.40;;
21777;SDS011;11050;52.222;20.916;2023-09-19T07:27:55;16.88;;;13.82;;
21777;SDS011;11050;52.222;20.916;2023-09-19T07:30:25;20.90;;;14.50;;
21777;SDS011;11050;52.222;20.916;2023-09-19T07:32:51;21.65;;;13.77;;
21777;SDS011;11050;52.222;20.916;2023-09-19T07:35:18;20.52;;;15.23;;
21777;SDS011;11050;52.222;20.916;2023-09-19T07:37:45;20.42;;;15.50;;
21777;SDS011;11050;52.222;20.916;2023-09-19T07:40:15;20.08;;;14.82;;
21777;SDS011;11050;52.222;20.916;2023-09-19T07:42:41;17.40;;;14.45;;
21777;SDS011;11050;52.222;20.916;2023-09-19T07:45:09;19.83;;;15.45;;
21777;SDS011;11050;52.222;20.916;2023-09-19T07:47:39;21.40;;;15.40;;
21777;SDS011;11050;52.222;20.916;2023-09-19T07:50:09;19.67;;;15.35;;
21777;SDS011;11050;52.222;20.916;2023-09-19T07:52:36;17.35;;;14.98;;
21777;SDS011;11050;52.222;20.916;2023-09-19T07:55:04;18.60;;;15.27;;
21777;SDS011;11050;52.222;20.916;2023-09-19T07:57:34;23.80;;;16.38;;
21777;SDS011;11050;52.222;20.916;2023-09-19T08:00:01;18.20;;;15.35;;
21777;SDS011;11050;52.222;20.916;2023-09-19T08:02:29;24.08;;;16.33;;
21777;SDS011;11050;52.222;20.916;2023-09-19T08:04:59;23.02;;;16.70;;
21777;SDS011;11050;52.222;20.916;2023-09-19T08:07:25;24.65;;;16.70;;
21777;SDS011;11050;52.222;20.916;2023-09-19T08:09:51;26.10;;;16.27;;
21777;SDS011;11050;52.222;20.916;2023-09-19T08:12:17;22.08;;;16.23;;
21777;SDS011;11050;52.222;20.916;2023-09-19T08:14:44;20.08;;;16.02;;
21777;SDS011;11050;52.222;20.916;2023-09-19T08:17:12;17.38;;;14.93;;
21777;SDS011;11050;52.222;20.916;2023-09-19T08:19:38;21.98;;;15.77;;
21777;SDS011;11050;52.222;20.916;2023-09-19T08:22:07;20.15;;;15.05;;
21777;SDS011;11050;52.222;20.916;2023-09-19T08:24:35;17.33;;;14.10;;
21777;SDS011;11050;52.222;20.916;2023-09-19T08:27:01;16.08;;;13.35;;
21777;SDS011;11050;52.222;20.916;2023-09-19T08:29:29;18.25;;;13.85;;
21777;SDS011;11050;52.222;20.916;2023-09-19T08:31:56;22.67;;;13.75;;
21777;SDS011;11050;52.222;20.916;2023-09-19T08:34:26;18.38;;;13.85;;
21777;SDS011;11050;52.222;20.916;2023-09-19T08:36:55;16.77;;;12.52;;
21777;SDS011;11050;52.222;20.916;2023-09-19T08:39:23;16.02;;;13.43;;
21777;SDS011;11050;52.222;20.916;2023-09-19T08:41:59;15.15;;;13.55;;
21777;SDS011;11050;52.222;20.916;2023-09-19T08:44:29;21.45;;;13.45;;
21777;SDS011;11050;52.222;20.916;2023-09-19T08:47:09;14.57;;;12.80;;
21777;SDS011;11050;52.222;20.916;2023-09-19T08:49:52;16.65;;;13.48;;
21777;SDS011;11050;52.222;20.916;2023-09-19T08:52:27;15.60;;;13.85;;
21777;SDS011;11050;52.222;20.916;2023-09-19T08:55:05;16.83;;;13.65;;
21777;SDS011;11050;52.222;20.916;2023-09-19T08:57:36;16.33;;;14.18;;
21777;SDS011;11050;52.222;20.916;2023-09-19T09:00:06;16.35;;;13.13;;
21777;SDS011;11050;52.222;20.916;2023-09-19T09:02:37;17.58;;;13.68;;
21777;SDS011;11050;52.222;20.916;2023-09-19T09:05:08;20.45;;;13.75;;
21777;SDS011;11050;52.222;20.916;2023-09-19T09:07:36;19.58;;;13.77;;
21777;SDS011;11050;52.222;20.916;2023-09-19T09:10:03;17.60;;;12.90;;
21777;SDS011;11050;52.222;20.916;2023-09-19T09:12:30;14.93;;;12.93;;
21777;SDS011;11050;52.222;20.916;2023-09-19T09:14:56;14.68;;;12.63;;
21777;SDS011;11050;52.222;20.916;2023-09-19T09:17:25;16.20;;;13.63;;
21777;SDS011;11050;52.222;20.916;2023-09-19T09:19:52;18.38;;;12.45;;
21777;SDS011;11050;52.222;20.916;2023-09-19T09:22:18;16.23;;;11.95;;
21777;SDS011;11050;52.222;20.916;2023-09-19T09:24:58;17.83;;;12.50;;
21777;SDS011;11050;52.222;20.916;2023-09-19T09:27:28;22.40;;;12.07;;
21777;SDS011;11050;52.222;20.916;2023-09-19T09:29:54;21.40;;;13.18;;
21777;SDS011;11050;52.222;20.916;2023-09-19T09:34:57;21.27;;;14.40;;
21777;SDS011;11050;52.222;20.916;2023-09-19T09:37:25;19.92;;;13.38;;
21777;SDS011;11050;52.222;20.916;2023-09-19T09:39:57;21.23;;;13.70;;
21777;SDS011;11050;52.222;20.916;2023-09-19T09:42:39;20.23;;;14.20;;
21777;SDS011;11050;52.222;20.916;2023-09-19T09:47:48;18.92;;;14.40;;
21777;SDS011;11050;52.222;20.916;2023-09-19T09:50:27;18.25;;;13.65;;
21777;SDS011;11050;52.222;20.916;2023-09-19T09:53:21;19.10;;;12.40;;
21777;SDS011;11050;52.222;20.916;2023-09-19T10:01:17;17.85;;;13.13;;
21777;SDS011;11050;52.222;20.916;2023-09-19T10:03:43;17.95;;;13.73;;
21777;SDS011;11050;52.222;20.916;2023-09-19T10:06:13;17.13;;;13.50;;
21777;SDS011;11050;52.222;20.916;2023-09-19T10:11:30;17.95;;;12.88;;
21777;SDS011;11050;52.222;20.916;2023-09-19T10:13:57;18.15;;;13.07;;
21777;SDS011;11050;52.222;20.916;2023-09-19T10:16:29;20.65;;;13.75;;
21777;SDS011;11050;52.222;20.916;2023-09-19T10:18:57;15.48;;;11.40;;
21777;SDS011;11050;52.222;20.916;2023-09-19T10:21:27;16.58;;;12.45;;
21777;SDS011;11050;52.222;20.916;2023-09-19T10:23:55;13.93;;;11.13;;
21777;SDS011;11050;52.222;20.916;2023-09-19T10:26:25;13.40;;;9.82;;
21777;SDS011;11050;52.222;20.916;2023-09-19T10:28:56;12.27;;;10.95;;
21777;SDS011;11050;52.222;20.916;2023-09-19T10:31:24;15.43;;;11.45;;
21777;SDS011;11050;52.222;20.916;2023-09-19T10:33:53;13.30;;;9.70;;
21777;SDS011;11050;52.222;20.916;2023-09-19T10:36:24;10.13;;;8.75;;
21777;SDS011;11050;52.222;20.916;2023-09-19T10:38:54;11.05;;;8.15;;
21777;SDS011;11050;52.222;20.916;2023-09-19T10:41:25;10.10;;;7.88;;
21777;SDS011;11050;52.222;20.916;2023-09-19T10:43:55;10.00;;;8.20;;
21777;SDS011;11050;52.222;20.916;2023-09-19T10:46:24;12.13;;;9.05;;
21777;SDS011;11050;52.222;20.916;2023-09-19T10:48:50;10.25;;;8.63;;
21777;SDS011;11050;52.222;20.916;2023-09-19T10:51:20;11.45;;;8.45;;
21777;SDS011;11050;52.222;20.916;2023-09-19T10:54:01;10.73;;;8.68;;
21777;SDS011;11050;52.222;20.916;2023-09-19T10:56:44;10.02;;;8.48;;
21777;SDS011;11050;52.222;20.916;2023-09-19T10:59:20;8.43;;;7.53;;
21777;SDS011;11050;52.222;20.916;2023-09-19T11:01:52;9.90;;;7.35;;
21777;SDS011;11050;52.222;20.916;2023-09-19T11:07:10;10.40;;;9.18;;
21777;SDS011;11050;52.222;20.916;2023-09-19T11:14:56;9.98;;;8.65;;
21777;SDS011;11050;52.222;20.916;2023-09-19T11:17:32;8.65;;;7.72;;
21777;SDS011;11050;52.222;20.916;2023-09-19T11:30:46;13.57;;;8.60;;
21777;SDS011;11050;52.222;20.916;2023-09-19T11:36:08;9.60;;;7.40;;
21777;SDS011;11050;52.222;20.916;2023-09-19T11:49:17;12.07;;;7.97;;
21777;SDS011;11050;52.222;20.916;2023-09-19T11:51:55;11.18;;;7.80;;
21777;SDS011;11050;52.222;20.916;2023-09-19T11:54:22;11.75;;;8.10;;
21777;SDS011;11050;52.222;20.916;2023-09-19T11:56:53;11.15;;;9.20;;
21777;SDS011;11050;52.222;20.916;2023-09-19T11:59:20;11.45;;;8.07;;
21777;SDS011;11050;52.222;20.916;2023-09-19T12:02:05;9.63;;;7.88;;
21777;SDS011;11050;52.222;20.916;2023-09-19T12:07:09;11.50;;;8.20;;
21777;SDS011;11050;52.222;20.916;2023-09-19T12:09:40;9.98;;;8.15;;
21777;SDS011;11050;52.222;20.916;2023-09-19T12:12:24;11.57;;;8.50;;
21777;SDS011;11050;52.222;20.916;2023-09-19T12:14:55;10.60;;;8.40;;
21777;SDS011;11050;52.222;20.916;2023-09-19T12:17:37;11.88;;;8.93;;
21777;SDS011;11050;52.222;20.916;2023-09-19T12:20:06;9.55;;;8.57;;
21777;SDS011;11050;52.222;20.916;2023-09-19T12:22:42;14.02;;;8.45;;
21777;SDS011;11050;52.222;20.916;2023-09-19T12:25:11;13.00;;;8.70;;
21777;SDS011;11050;52.222;20.916;2023-09-19T12:27:48;14.02;;;8.60;;
21777;SDS011;11050;52.222;20.916;2023-09-19T12:30:18;10.95;;;9.00;;
21777;SDS011;11050;52.222;20.916;2023-09-19T12:32:47;9.70;;;8.27;;
21777;SDS011;11050;52.222;20.916;2023-09-19T12:35:30;11.40;;;9.20;;
21777;SDS011;11050;52.222;20.916;2023-09-19T12:38:00;12.05;;;8.93;;
21777;SDS011;11050;52.222;20.916;2023-09-19T12:40:28;14.13;;;9.35;;
21777;SDS011;11050;52.222;20.916;2023-09-19T12:42:58;12.02;;;9.60;;
21777;SDS011;11050;52.222;20.916;2023-09-19T12:45:25;12.68;;;8.77;;
21777;SDS011;11050;52.222;20.916;2023-09-19T12:50:59;10.25;;;8.90;;
21777;SDS011;11050;52.222;20.916;2023-09-19T12:53:38;11.45;;;9.68;;
21777;SDS011;11050;52.222;20.916;2023-09-19T12:56:09;12.50;;;9.88;;
21777;SDS011;11050;52.222;20.916;2023-09-19T12:58:50;13.90;;;9.82;;
21777;SDS011;11050;52.222;20.916;2023-09-19T13:01:21;11.57;;;9.57;;
21777;SDS011;11050;52.222;20.916;2023-09-19T13:06:50;12.40;;;9.45;;
21777;SDS011;11050;52.222;20.916;2023-09-19T13:09:18;14.07;;;9.35;;
21777;SDS011;11050;52.222;20.916;2023-09-19T13:11:45;13.27;;;10.27;;
21777;SDS011;11050;52.222;20.916;2023-09-19T13:14:25;17.00;;;10.43;;
21777;SDS011;11050;52.222;20.916;2023-09-19T13:22:40;14.18;;;9.95;;
21777;SDS011;11050;52.222;20.916;2023-09-19T13:25:20;11.57;;;9.20;;
21777;SDS011;11050;52.222;20.916;2023-09-19T13:27:48;12.85;;;9.70;;
21777;SDS011;11050;52.222;20.916;2023-09-19T13:30:25;13.43;;;9.68;;
21777;SDS011;11050;52.222;20.916;2023-09-19T13:33:07;12.63;;;10.60;;
21777;SDS011;11050;52.222;20.916;2023-09-19T13:35:35;15.65;;;9.90;;
21777;SDS011;11050;52.222;20.916;2023-09-19T13:38:03;13.48;;;10.45;;
21777;SDS011;11050;52.222;20.916;2023-09-19T13:40:29;14.13;;;11.13;;
21777;SDS011;11050;52.222;20.916;2023-09-19T13:42:55;18.50;;;10.75;;
21777;SDS011;11050;52.222;20.916;2023-09-19T13:45:21;14.35;;;10.38;;
21777;SDS011;11050;52.222;20.916;2023-09-19T13:47:49;16.05;;;11.52;;
21777;SDS011;11050;52.222;20.916;2023-09-19T13:50:15;15.73;;;10.82;;
21777;SDS011;11050;52.222;20.916;2023-09-19T13:52:43;12.65;;;10.88;;
21777;SDS011;11050;52.222;20.916;2023-09-19T13:55:09;15.65;;;11.02;;
21777;SDS011;11050;52.222;20.916;2023-09-19T13:57:35;14.60;;;11.10;;
21777;SDS011;11050;52.222;20.916;2023-09-19T14:00:00;15.38;;;11.75;;
21777;SDS011;11050;52.222;20.916;2023-09-19T14:02:26;13.15;;;11.65;;
21777;SDS011;11050;52.222;20.916;2023-09-19T14:04:52;15.85;;;12.30;;
21777;SDS011;11050;52.222;20.916;2023-09-19T14:07:18;15.77;;;11.85;;
21777;SDS011;11050;52.222;20.916;2023-09-19T14:09:45;15.23;;;13.25;;
21777;SDS011;11050;52.222;20.916;2023-09-19T14:12:11;16.10;;;13.77;;
21777;SDS011;11050;52.222;20.916;2023-09-19T14:14:38;12.73;;;11.25;;
21777;SDS011;11050;52.222;20.916;2023-09-19T14:17:04;14.27;;;12.15;;
21777;SDS011;11050;52.222;20.916;2023-09-19T14:19:31;17.70;;;10.70;;
21777;SDS011;11050;52.222;20.916;2023-09-19T14:21:58;10.60;;;9.55;;
21777;SDS011;11050;52.222;20.916;2023-09-19T14:24:24;9.07;;;7.85;;
21777;SDS011;11050;52.222;20.916;2023-09-19T14:26:50;8.10;;;7.32;;
21777;SDS011;11050;52.222;20.916;2023-09-19T14:29:16;10.10;;;7.40;;
21777;SDS011;11050;52.222;20.916;2023-09-19T14:31:42;10.07;;;7.15;;
21777;SDS011;11050;52.222;20.916;2023-09-19T14:34:08;7.32;;;6.63;;
21777;SDS011;11050;52.222;20.916;2023-09-19T14:36:38;6.63;;;6.03;;
21777;SDS011;11050;52.222;20.916;2023-09-19T14:39:04;6.63;;;6.00;;
21777;SDS011;11050;52.222;20.916;2023-09-19T14:41:30;7.88;;;6.32;;
21777;SDS011;11050;52.222;20.916;2023-09-19T14:43:56;7.35;;;5.72;;
21777;SDS011;11050;52.222;20.916;2023-09-19T14:46:22;11.13;;;6.00;;
21777;SDS011;11050;52.222;20.916;2023-09-19T14:48:49;10.30;;;6.30;;
21777;SDS011;11050;52.222;20.916;2023-09-19T14:51:18;9.93;;;5.85;;
21777;SDS011;11050;52.222;20.916;2023-09-19T14:53:44;11.85;;;6.53;;
21777;SDS011;11050;52.222;20.916;2023-09-19T14:56:12;11.13;;;6.32;;
21777;SDS011;11050;52.222;20.916;2023-09-19T14:58:41;6.32;;;5.72;;
21777;SDS011;11050;52.222;20.916;2023-09-19T15:01:10;9.93;;;6.30;;
21777;SDS011;11050;52.222;20.916;2023-09-19T15:03:39;8.02;;;6.13;;
21777;SDS011;11050;52.222;20.916;2023-09-19T15:06:07;9.13;;;6.65;;
21777;SDS011;11050;52.222;20.916;2023-09-19T15:08:39;8.43;;;6.40;;
21777;SDS011;11050;52.222;20.916;2023-09-19T15:11:10;6.78;;;5.80;;
21777;SDS011;11050;52.222;20.916;2023-09-19T15:13:37;7.15;;;6.43;;
21777;SDS011;11050;52.222;20.916;2023-09-19T15:16:04;7.57;;;6.53;;
21777;SDS011;11050;52.222;20.916;2023-09-19T15:18:35;8.02;;;6.28;;
21777;SDS011;11050;52.222;20.916;2023-09-19T15:21:07;9.82;;;6.72;;
21777;SDS011;11050;52.222;20.916;2023-09-19T15:23:35;10.57;;;7.53;;
21777;SDS011;11050;52.222;20.916;2023-09-19T15:26:04;7.25;;;6.50;;
21777;SDS011;11050;52.222;20.916;2023-09-19T15:28:33;10.40;;;6.93;;
21777;SDS011;11050;52.222;20.916;2023-09-19T15:33:31;6.35;;;5.47;;
21777;SDS011;11050;52.222;20.916;2023-09-19T15:36:04;7.38;;;5.88;;
21777;SDS011;11050;52.222;20.916;2023-09-19T15:41:36;6.57;;;5.63;;
21777;SDS011;11050;52.222;20.916;2023-09-19T15:44:07;9.45;;;5.93;;
21777;SDS011;11050;52.222;20.916;2023-09-19T15:46:41;9.15;;;5.93;;
21777;SDS011;11050;52.222;20.916;2023-09-19T15:49:07;5.35;;;4.85;;
21777;SDS011;11050;52.222;20.916;2023-09-19T15:51:34;6.18;;;4.88;;